sensor_id;sensor_type;location;lat;lon;timestamp;P1;durP1;ratioP1;P2;durP2;ratioP2
8857;SDS011;4465;50.904;4.696;2023-07-08T00:01:19;153.73;;;141.60;;
8857;SDS011;4465;50.904;4.696;2023-07-08T00:03:47;149.35;;;137.60;;
8857;SDS011;4465;50.904;4.696;2023-07-08T00:06:18;147.13;;;135.57;;
8857;SDS011;4465;50.904;4.696;2023-07-08T00:08:46;143.20;;;131.82;;
8857;SDS011;4465;50.904;4.696;2023-07-08T00:11:13;148.52;;;137.02;;
8857;SDS011;4465;50.904;4.696;2023-07-08T00:13:42;147.52;;;135.85;;
8857;SDS011;4465;50.904;4.696;2023-07-08T00:16:12;142.55;;;131.63;;
8857;SDS011;4465;50.904;4.696;2023-07-08T00:18:40;149.73;;;138.10;;
8857;SDS011;4465;50.904;4.696;2023-07-08T00:21:10;161.57;;;148.75;;
8857;SDS011;4465;50.904;4.696;2023-07-08T00:23:40;144.65;;;133.40;;
8857;SDS011;4465;50.904;4.696;2023-07-08T00:26:13;149.73;;;137.90;;
8857;SDS011;4465;50.904;4.696;2023-07-08T00:28:43;139.10;;;127.90;;
8857;SDS011;4465;50.904;4.696;2023-07-08T00:31:11;142.52;;;131.18;;
8857;SDS011;4465;50.904;4.696;2023-07-08T00:33:37;152.43;;;140.23;;
8857;SDS011;4465;50.904;4.696;2023-07-08T00:36:07;156.90;;;144.15;;
8857;SDS011;4465;50.904;4.696;2023-07-08T00:38:36;154.93;;;142.45;;
8857;SDS011;4465;50.904;4.696;2023-07-08T00:43:35;146.57;;;134.93;;
8857;SDS011;4465;50.904;4.696;2023-07-08T00:52:39;145.05;;;133.07;;
8857;SDS011;4465;50.904;4.696;2023-07-08T00:55:01;137.43;;;126.43;;
8857;SDS011;4465;50.904;4.696;2023-07-08T00:57:34;150.50;;;138.05;;
8857;SDS011;4465;50.904;4.696;2023-07-08T01:00:13;128.63;;;118.78;;
8857;SDS011;4465;50.904;4.696;2023-07-08T01:02:44;151.38;;;138.85;;
8857;SDS011;4465;50.904;4.696;2023-07-08T01:05:16;146.57;;;134.98;;
8857;SDS011;4465;50.904;4.696;2023-07-08T01:07:49;137.82;;;126.50;;
8857;SDS011;4465;50.904;4.696;2023-07-08T01:10:20;148.68;;;136.85;;
8857;SDS011;4465;50.904;4.696;2023-07-08T01:12:57;143.00;;;131.65;;
8857;SDS011;4465;50.904;4.696;2023-07-08T01:15:30;149.85;;;137.52;;
8857;SDS011;4465;50.904;4.696;2023-07-08T01:18:01;152.52;;;139.85;;
8857;SDS011;4465;50.904;4.696;2023-07-08T01:20:27;147.03;;;135.07;;
8857;SDS011;4465;50.904;4.696;2023-07-08T01:22:54;145.88;;;134.38;;
8857;SDS011;4465;50.904;4.696;2023-07-08T01:25:22;152.35;;;140.23;;
8857;SDS011;4465;50.904;4.696;2023-07-08T01:27:55;150.23;;;138.40;;
8857;SDS011;4465;50.904;4.696;2023-07-08T01:30:22;151.52;;;139.18;;
8857;SDS011;4465;50.904;4.696;2023-07-08T01:32:51;154.57;;;142.07;;
8857;SDS011;4465;50.904;4.696;2023-07-08T01:35:25;153.65;;;141.05;;
8857;SDS011;4465;50.904;4.696;2023-07-08T01:37:57;160.73;;;147.55;;
8857;SDS011;4465;50.904;4.696;2023-07-08T01:42:59;156.43;;;144.00;;
8857;SDS011;4465;50.904;4.696;2023-07-08T01:45:27;143.13;;;131.32;;
8857;SDS011;4465;50.904;4.696;2023-07-08T01:48:06;149.05;;;136.93;;
8857;SDS011;4465;50.904;4.696;2023-07-08T01:50:37;143.82;;;132.40;;
8857;SDS011;4465;50.904;4.696;2023-07-08T01:53:12;154.73;;;141.90;;
8857;SDS011;4465;50.904;4.696;2023-07-08T01:55:41;149.55;;;137.43;;
8857;SDS011;4465;50.904;4.696;2023-07-08T01:58:07;163.93;;;150.45;;
8857;SDS011;4465;50.904;4.696;2023-07-08T02:00:33;163.82;;;150.43;;
8857;SDS011;4465;50.904;4.696;2023-07-08T02:02:59;150.98;;;138.55;;
8857;SDS011;4465;50.904;4.696;2023-07-08T02:05:27;91.53;;;84.00;;
8857;SDS011;4465;50.904;4.696;2023-07-08T02:07:53;87.95;;;80.90;;
8857;SDS011;4465;50.904;4.696;2023-07-08T02:10:19;95.15;;;87.95;;
8857;SDS011;4465;50.904;4.696;2023-07-08T02:12:47;91.15;;;84.32;;
8857;SDS011;4465;50.904;4.696;2023-07-08T02:15:16;101.15;;;93.47;;
8857;SDS011;4465;50.904;4.696;2023-07-08T02:17:42;101.53;;;93.97;;
8857;SDS011;4465;50.904;4.696;2023-07-08T02:20:07;109.35;;;101.32;;
8857;SDS011;4465;50.904;4.696;2023-07-08T02:22:36;120.72;;;111.57;;
8857;SDS011;4465;50.904;4.696;2023-07-08T02:25:07;117.80;;;109.13;;
8857;SDS011;4465;50.904;4.696;2023-07-08T02:27:37;130.40;;;120.57;;
8857;SDS011;4465;50.904;4.696;2023-07-08T02:30:03;126.13;;;116.47;;
8857;SDS011;4465;50.904;4.696;2023-07-08T02:32:31;135.35;;;125.25;;
8857;SDS011;4465;50.904;4.696;2023-07-08T02:35:04;138.90;;;128.32;;
8857;SDS011;4465;50.904;4.696;2023-07-08T02:37:31;158.13;;;146.30;;
8857;SDS011;4465;50.904;4.696;2023-07-08T02:39:57;165.85;;;153.35;;
8857;SDS011;4465;50.904;4.696;2023-07-08T02:42:24;166.15;;;153.60;;
8857;SDS011;4465;50.904;4.696;2023-07-08T02:44:49;174.48;;;161.35;;
8857;SDS011;4465;50.904;4.696;2023-07-08T02:47:15;179.60;;;166.23;;
8857;SDS011;4465;50.904;4.696;2023-07-08T02:49:41;194.38;;;179.65;;
8857;SDS011;4465;50.904;4.696;2023-07-08T02:52:07;213.75;;;197.90;;
8857;SDS011;4465;50.904;4.696;2023-07-08T02:54:33;214.00;;;197.73;;
8857;SDS011;4465;50.904;4.696;2023-07-08T02:57:04;227.18;;;210.23;;
8857;SDS011;4465;50.904;4.696;2023-07-08T02:59:30;261.85;;;242.35;;
8857;SDS011;4465;50.904;4.696;2023-07-08T03:01:56;269.92;;;249.55;;
8857;SDS011;4465;50.904;4.696;2023-07-08T03:04:21;284.17;;;262.92;;
8857;SDS011;4465;50.904;4.696;2023-07-08T03:06:50;297.90;;;275.48;;
8857;SDS011;4465;50.904;4.696;2023-07-08T03:09:16;310.48;;;287.27;;
8857;SDS011;4465;50.904;4.696;2023-07-08T03:11:42;327.70;;;303.15;;
8857;SDS011;4465;50.904;4.696;2023-07-08T03:14:09;323.52;;;299.30;;
8857;SDS011;4465;50.904;4.696;2023-07-08T03:16:34;324.63;;;300.20;;
8857;SDS011;4465;50.904;4.696;2023-07-08T03:19:00;336.02;;;311.05;;
8857;SDS011;4465;50.904;4.696;2023-07-08T03:21:26;339.85;;;314.38;;
8857;SDS011;4465;50.904;4.696;2023-07-08T03:23:54;338.02;;;312.70;;
8857;SDS011;4465;50.904;4.696;2023-07-08T03:26:23;343.88;;;318.15;;
8857;SDS011;4465;50.904;4.696;2023-07-08T03:28:50;371.55;;;343.60;;
8857;SDS011;4465;50.904;4.696;2023-07-08T03:31:16;381.25;;;352.88;;
8857;SDS011;4465;50.904;4.696;2023-07-08T03:33:42;391.23;;;361.85;;
8857;SDS011;4465;50.904;4.696;2023-07-08T03:36:13;390.98;;;361.67;;
8857;SDS011;4465;50.904;4.696;2023-07-08T03:38:49;381.63;;;353.52;;
8857;SDS011;4465;50.904;4.696;2023-07-08T03:41:20;395.77;;;366.13;;
8857;SDS011;4465;50.904;4.696;2023-07-08T03:43:47;398.77;;;369.02;;
8857;SDS011;4465;50.904;4.696;2023-07-08T03:46:13;404.75;;;374.35;;
8857;SDS011;4465;50.904;4.696;2023-07-08T03:48:40;439.83;;;405.85;;
8857;SDS011;4465;50.904;4.696;2023-07-08T03:51:08;427.40;;;394.73;;
8857;SDS011;4465;50.904;4.696;2023-07-08T03:53:40;424.63;;;392.58;;
8857;SDS011;4465;50.904;4.696;2023-07-08T03:56:11;422.85;;;390.88;;
8857;SDS011;4465;50.904;4.696;2023-07-08T03:58:38;431.75;;;399.35;;
8857;SDS011;4465;50.904;4.696;2023-07-08T04:01:04;424.08;;;391.83;;
8857;SDS011;4465;50.904;4.696;2023-07-08T04:03:35;424.55;;;392.58;;
8857;SDS011;4465;50.904;4.696;2023-07-08T04:06:00;399.80;;;369.77;;
8857;SDS011;4465;50.904;4.696;2023-07-08T04:08:26;389.67;;;360.38;;
8857;SDS011;4465;50.904;4.696;2023-07-08T04:10:52;403.80;;;373.48;;
8857;SDS011;4465;50.904;4.696;2023-07-08T04:13:20;399.73;;;369.73;;
8857;SDS011;4465;50.904;4.696;2023-07-08T04:15:49;406.52;;;376.08;;
8857;SDS011;4465;50.904;4.696;2023-07-08T04:18:19;380.13;;;351.70;;
8857;SDS011;4465;50.904;4.696;2023-07-08T04:20:45;379.10;;;350.60;;
8857;SDS011;4465;50.904;4.696;2023-07-08T04:23:21;372.80;;;344.75;;
8857;SDS011;4465;50.904;4.696;2023-07-08T04:25:50;383.58;;;354.48;;
8857;SDS011;4465;50.904;4.696;2023-07-08T04:28:20;373.38;;;345.52;;
8857;SDS011;4465;50.904;4.696;2023-07-08T04:30:47;382.00;;;352.83;;
8857;SDS011;4465;50.904;4.696;2023-07-08T04:33:16;365.08;;;337.42;;
8857;SDS011;4465;50.904;4.696;2023-07-08T04:35:44;378.38;;;349.83;;
8857;SDS011;4465;50.904;4.696;2023-07-08T04:38:16;377.17;;;348.65;;
8857;SDS011;4465;50.904;4.696;2023-07-08T04:40:50;359.52;;;332.45;;
8857;SDS011;4465;50.904;4.696;2023-07-08T04:43:17;360.98;;;334.30;;
8857;SDS011;4465;50.904;4.696;2023-07-08T04:45:45;356.42;;;329.60;;
8857;SDS011;4465;50.904;4.696;2023-07-08T04:48:16;348.95;;;323.05;;
8857;SDS011;4465;50.904;4.696;2023-07-08T04:50:49;342.10;;;316.27;;
8857;SDS011;4465;50.904;4.696;2023-07-08T04:53:16;339.17;;;313.80;;
8857;SDS011;4465;50.904;4.696;2023-07-08T04:55:47;327.73;;;303.77;;
8857;SDS011;4465;50.904;4.696;2023-07-08T04:58:18;319.83;;;296.30;;
8857;SDS011;4465;50.904;4.696;2023-07-08T05:00:45;327.58;;;303.38;;
8857;SDS011;4465;50.904;4.696;2023-07-08T05:03:11;316.58;;;292.88;;
8857;SDS011;4465;50.904;4.696;2023-07-08T05:05:39;314.02;;;291.08;;
8857;SDS011;4465;50.904;4.696;2023-07-08T05:08:06;308.88;;;286.38;;
8857;SDS011;4465;50.904;4.696;2023-07-08T05:10:32;322.92;;;298.95;;
8857;SDS011;4465;50.904;4.696;2023-07-08T05:13:01;314.88;;;291.48;;
8857;SDS011;4465;50.904;4.696;2023-07-08T05:15:27;318.23;;;294.92;;
8857;SDS011;4465;50.904;4.696;2023-07-08T05:17:53;302.02;;;280.05;;
8857;SDS011;4465;50.904;4.696;2023-07-08T05:20:19;318.33;;;294.85;;
8857;SDS011;4465;50.904;4.696;2023-07-08T05:22:45;309.33;;;286.98;;
8857;SDS011;4465;50.904;4.696;2023-07-08T05:25:14;308.27;;;285.75;;
8857;SDS011;4465;50.904;4.696;2023-07-08T05:27:41;310.95;;;288.20;;
8857;SDS011;4465;50.904;4.696;2023-07-08T05:30:08;304.55;;;282.52;;
8857;SDS011;4465;50.904;4.696;2023-07-08T05:32:40;318.00;;;294.83;;
8857;SDS011;4465;50.904;4.696;2023-07-08T05:35:07;306.15;;;284.05;;
8857;SDS011;4465;50.904;4.696;2023-07-08T05:37:33;315.05;;;292.08;;
8857;SDS011;4465;50.904;4.696;2023-07-08T05:40:01;304.10;;;282.05;;
8857;SDS011;4465;50.904;4.696;2023-07-08T05:42:29;313.45;;;290.48;;
8857;SDS011;4465;50.904;4.696;2023-07-08T05:44:58;311.50;;;288.92;;
8857;SDS011;4465;50.904;4.696;2023-07-08T05:47:27;305.95;;;283.77;;
8857;SDS011;4465;50.904;4.696;2023-07-08T05:49:52;315.50;;;292.73;;
8857;SDS011;4465;50.904;4.696;2023-07-08T05:52:20;307.95;;;285.27;;
8857;SDS011;4465;50.904;4.696;2023-07-08T05:54:46;321.20;;;297.50;;
8857;SDS011;4465;50.904;4.696;2023-07-08T05:57:12;313.35;;;290.33;;
8857;SDS011;4465;50.904;4.696;2023-07-08T05:59:38;312.67;;;290.05;;
8857;SDS011;4465;50.904;4.696;2023-07-08T06:02:05;319.85;;;296.52;;
8857;SDS011;4465;50.904;4.696;2023-07-08T06:04:32;337.27;;;312.13;;
8857;SDS011;4465;50.904;4.696;2023-07-08T06:07:00;345.52;;;319.77;;
8857;SDS011;4465;50.904;4.696;2023-07-08T06:09:26;352.13;;;326.23;;
8857;SDS011;4465;50.904;4.696;2023-07-08T06:11:52;334.08;;;309.63;;
8857;SDS011;4465;50.904;4.696;2023-07-08T06:14:18;340.05;;;315.27;;
8857;SDS011;4465;50.904;4.696;2023-07-08T06:16:44;357.38;;;330.70;;
8857;SDS011;4465;50.904;4.696;2023-07-08T06:19:10;361.55;;;334.58;;
8857;SDS011;4465;50.904;4.696;2023-07-08T06:21:40;326.25;;;302.33;;
8857;SDS011;4465;50.904;4.696;2023-07-08T06:24:06;312.08;;;289.08;;
8857;SDS011;4465;50.904;4.696;2023-07-08T06:26:32;308.55;;;285.45;;
8857;SDS011;4465;50.904;4.696;2023-07-08T06:29:00;316.25;;;292.80;;
8857;SDS011;4465;50.904;4.696;2023-07-08T06:31:27;332.42;;;307.70;;
8857;SDS011;4465;50.904;4.696;2023-07-08T06:33:54;324.58;;;300.73;;
8857;SDS011;4465;50.904;4.696;2023-07-08T06:36:22;337.10;;;311.80;;
8857;SDS011;4465;50.904;4.696;2023-07-08T06:38:48;327.55;;;303.13;;
8857;SDS011;4465;50.904;4.696;2023-07-08T06:41:14;351.10;;;325.15;;
8857;SDS011;4465;50.904;4.696;2023-07-08T06:43:40;358.55;;;331.63;;
8857;SDS011;4465;50.904;4.696;2023-07-08T06:46:06;364.42;;;337.15;;
8857;SDS011;4465;50.904;4.696;2023-07-08T06:48:32;349.20;;;323.52;;
8857;SDS011;4465;50.904;4.696;2023-07-08T06:50:58;378.27;;;349.75;;
8857;SDS011;4465;50.904;4.696;2023-07-08T06:53:24;370.95;;;342.85;;
8857;SDS011;4465;50.904;4.696;2023-07-08T06:55:52;380.98;;;352.52;;
8857;SDS011;4465;50.904;4.696;2023-07-08T06:58:18;379.40;;;351.23;;
8857;SDS011;4465;50.904;4.696;2023-07-08T07:00:44;381.40;;;352.83;;
8857;SDS011;4465;50.904;4.696;2023-07-08T07:03:11;368.67;;;341.37;;
8857;SDS011;4465;50.904;4.696;2023-07-08T07:05:39;374.53;;;346.50;;
8857;SDS011;4465;50.904;4.696;2023-07-08T07:08:08;384.10;;;355.70;;
8857;SDS011;4465;50.904;4.696;2023-07-08T07:10:34;402.10;;;372.55;;
8857;SDS011;4465;50.904;4.696;2023-07-08T07:13:00;395.25;;;366.00;;
8857;SDS011;4465;50.904;4.696;2023-07-08T07:15:26;391.08;;;362.17;;
8857;SDS011;4465;50.904;4.696;2023-07-08T07:17:52;394.98;;;366.27;;
8857;SDS011;4465;50.904;4.696;2023-07-08T07:20:20;364.77;;;338.05;;
8857;SDS011;4465;50.904;4.696;2023-07-08T07:22:48;374.38;;;347.13;;
8857;SDS011;4465;50.904;4.696;2023-07-08T07:25:17;389.17;;;360.77;;
8857;SDS011;4465;50.904;4.696;2023-07-08T07:27:43;378.65;;;351.08;;
8857;SDS011;4465;50.904;4.696;2023-07-08T07:30:09;388.88;;;360.13;;
8857;SDS011;4465;50.904;4.696;2023-07-08T07:32:43;384.23;;;356.00;;
8857;SDS011;4465;50.904;4.696;2023-07-08T07:35:10;393.52;;;364.33;;
8857;SDS011;4465;50.904;4.696;2023-07-08T07:37:40;370.02;;;342.52;;
8857;SDS011;4465;50.904;4.696;2023-07-08T07:40:10;364.02;;;337.63;;
8857;SDS011;4465;50.904;4.696;2023-07-08T07:42:40;375.70;;;347.75;;
8857;SDS011;4465;50.904;4.696;2023-07-08T07:45:08;365.30;;;338.45;;
8857;SDS011;4465;50.904;4.696;2023-07-08T07:47:35;343.67;;;318.88;;
8857;SDS011;4465;50.904;4.696;2023-07-08T07:50:01;325.00;;;301.73;;
8857;SDS011;4465;50.904;4.696;2023-07-08T07:52:31;52.30;;;47.85;;
8857;SDS011;4465;50.904;4.696;2023-07-08T07:54:57;247.40;;;230.80;;
8857;SDS011;4465;50.904;4.696;2023-07-08T07:57:23;241.25;;;225.13;;
8857;SDS011;4465;50.904;4.696;2023-07-08T07:59:50;247.00;;;230.18;;
8857;SDS011;4465;50.904;4.696;2023-07-08T08:02:16;248.88;;;232.07;;
8857;SDS011;4465;50.904;4.696;2023-07-08T08:04:42;247.15;;;230.43;;
8857;SDS011;4465;50.904;4.696;2023-07-08T08:07:08;238.85;;;222.75;;
8857;SDS011;4465;50.904;4.696;2023-07-08T08:09:35;235.63;;;219.47;;
8857;SDS011;4465;50.904;4.696;2023-07-08T08:12:04;245.35;;;228.25;;
8857;SDS011;4465;50.904;4.696;2023-07-08T08:14:34;244.70;;;228.15;;
8857;SDS011;4465;50.904;4.696;2023-07-08T08:17:00;235.55;;;219.27;;
8857;SDS011;4465;50.904;4.696;2023-07-08T08:19:27;218.45;;;203.57;;
8857;SDS011;4465;50.904;4.696;2023-07-08T08:21:53;222.77;;;207.52;;
8857;SDS011;4465;50.904;4.696;2023-07-08T08:24:21;225.23;;;209.95;;
8857;SDS011;4465;50.904;4.696;2023-07-08T08:26:47;227.77;;;211.80;;
8857;SDS011;4465;50.904;4.696;2023-07-08T08:29:15;235.25;;;219.00;;
8857;SDS011;4465;50.904;4.696;2023-07-08T08:31:41;232.40;;;216.55;;
8857;SDS011;4465;50.904;4.696;2023-07-08T08:34:06;240.13;;;223.55;;
8857;SDS011;4465;50.904;4.696;2023-07-08T08:36:32;241.20;;;224.48;;
8857;SDS011;4465;50.904;4.696;2023-07-08T08:38:58;251.65;;;233.85;;
8857;SDS011;4465;50.904;4.696;2023-07-08T08:41:33;244.15;;;227.35;;
8857;SDS011;4465;50.904;4.696;2023-07-08T08:44:00;247.45;;;230.32;;
8857;SDS011;4465;50.904;4.696;2023-07-08T08:46:44;249.00;;;231.63;;
8857;SDS011;4465;50.904;4.696;2023-07-08T08:51:50;249.25;;;231.85;;
8857;SDS011;4465;50.904;4.696;2023-07-08T08:54:19;254.50;;;236.82;;
8857;SDS011;4465;50.904;4.696;2023-07-08T09:01:57;258.40;;;240.43;;
8857;SDS011;4465;50.904;4.696;2023-07-08T09:04:31;250.00;;;232.50;;
8857;SDS011;4465;50.904;4.696;2023-07-08T09:07:02;258.48;;;240.38;;
8857;SDS011;4465;50.904;4.696;2023-07-08T09:09:35;256.98;;;239.18;;
8857;SDS011;4465;50.904;4.696;2023-07-08T09:12:09;259.17;;;240.93;;
8857;SDS011;4465;50.904;4.696;2023-07-08T09:14:41;249.73;;;232.27;;
8857;SDS011;4465;50.904;4.696;2023-07-08T09:17:41;264.13;;;245.27;;
8857;SDS011;4465;50.904;4.696;2023-07-08T09:23:01;256.95;;;239.20;;
8857;SDS011;4465;50.904;4.696;2023-07-08T09:26:13;267.90;;;249.32;;
8857;SDS011;4465;50.904;4.696;2023-07-08T09:28:44;261.42;;;243.25;;
8857;SDS011;4465;50.904;4.696;2023-07-08T09:31:23;260.13;;;242.23;;
8857;SDS011;4465;50.904;4.696;2023-07-08T09:34:05;268.63;;;249.18;;
8857;SDS011;4465;50.904;4.696;2023-07-08T09:36:40;291.90;;;271.42;;
8857;SDS011;4465;50.904;4.696;2023-07-08T09:39:25;281.92;;;262.23;;
8857;SDS011;4465;50.904;4.696;2023-07-08T09:41:57;273.60;;;254.50;;
8857;SDS011;4465;50.904;4.696;2023-07-08T09:47:18;273.83;;;255.02;;
8857;SDS011;4465;50.904;4.696;2023-07-08T09:49:51;289.75;;;269.30;;
8857;SDS011;4465;50.904;4.696;2023-07-08T09:52:18;279.00;;;259.33;;
8857;SDS011;4465;50.904;4.696;2023-07-08T09:54:45;281.03;;;261.43;;
8857;SDS011;4465;50.904;4.696;2023-07-08T10:00:08;286.40;;;266.50;;
8857;SDS011;4465;50.904;4.696;2023-07-08T10:02:40;250.25;;;232.68;;
8857;SDS011;4465;50.904;4.696;2023-07-08T10:05:32;256.90;;;238.98;;
8857;SDS011;4465;50.904;4.696;2023-07-08T10:08:01;254.20;;;236.82;;
8857;SDS011;4465;50.904;4.696;2023-07-08T10:10:36;268.38;;;249.85;;
8857;SDS011;4465;50.904;4.696;2023-07-08T10:13:04;249.70;;;232.52;;
8857;SDS011;4465;50.904;4.696;2023-07-08T10:18:54;249.68;;;232.30;;
8857;SDS011;4465;50.904;4.696;2023-07-08T10:26:49;242.30;;;225.38;;
8857;SDS011;4465;50.904;4.696;2023-07-08T10:35:23;267.90;;;249.25;;
8857;SDS011;4465;50.904;4.696;2023-07-08T10:40:47;270.15;;;251.70;;
8857;SDS011;4465;50.904;4.696;2023-07-08T10:43:25;267.50;;;248.82;;
8857;SDS011;4465;50.904;4.696;2023-07-08T10:54:42;249.30;;;232.23;;
8857;SDS011;4465;50.904;4.696;2023-07-08T10:57:32;260.73;;;242.77;;
8857;SDS011;4465;50.904;4.696;2023-07-08T11:00:16;252.25;;;235.00;;
8857;SDS011;4465;50.904;4.696;2023-07-08T11:02:56;237.85;;;221.40;;
8857;SDS011;4465;50.904;4.696;2023-07-08T11:06:20;238.52;;;222.07;;
8857;SDS011;4465;50.904;4.696;2023-07-08T11:08:58;232.68;;;216.65;;
8857;SDS011;4465;50.904;4.696;2023-07-08T11:14:12;243.82;;;227.00;;
8857;SDS011;4465;50.904;4.696;2023-07-08T11:19:43;247.90;;;230.65;;
8857;SDS011;4465;50.904;4.696;2023-07-08T11:22:18;244.93;;;227.95;;
8857;SDS011;4465;50.904;4.696;2023-07-08T11:24:47;250.20;;;232.77;;
8857;SDS011;4465;50.904;4.696;2023-07-08T11:27:24;238.02;;;221.77;;
8857;SDS011;4465;50.904;4.696;2023-07-08T11:32:40;260.80;;;242.27;;
8857;SDS011;4465;50.904;4.696;2023-07-08T11:35:19;280.27;;;260.27;;
8857;SDS011;4465;50.904;4.696;2023-07-08T11:37:52;269.10;;;250.32;;
8857;SDS011;4465;50.904;4.696;2023-07-08T11:40:22;269.48;;;250.65;;
8857;SDS011;4465;50.904;4.696;2023-07-08T11:42:50;260.42;;;242.00;;
8857;SDS011;4465;50.904;4.696;2023-07-08T11:47:47;262.87;;;244.67;;
8857;SDS011;4465;50.904;4.696;2023-07-08T11:50:23;251.48;;;233.55;;
8857;SDS011;4465;50.904;4.696;2023-07-08T11:53:00;261.50;;;242.95;;
8857;SDS011;4465;50.904;4.696;2023-07-08T12:01:30;266.80;;;247.73;;
8857;SDS011;4465;50.904;4.696;2023-07-08T12:09:26;271.40;;;251.85;;
8857;SDS011;4465;50.904;4.696;2023-07-08T12:12:02;32.55;;;29.85;;
8857;SDS011;4465;50.904;4.696;2023-07-08T12:14:31;29.80;;;27.27;;
8857;SDS011;4465;50.904;4.696;2023-07-08T12:19:27;29.15;;;26.75;;
8857;SDS011;4465;50.904;4.696;2023-07-08T12:21:57;191.50;;;177.75;;
8857;SDS011;4465;50.904;4.696;2023-07-08T12:24:23;25.27;;;23.13;;
8857;SDS011;4465;50.904;4.696;2023-07-08T12:26:52;20.83;;;19.08;;
8857;SDS011;4465;50.904;4.696;2023-07-08T12:31:44;19.23;;;17.63;;
8857;SDS011;4465;50.904;4.696;2023-07-08T12:34:12;20.63;;;16.98;;
8857;SDS011;4465;50.904;4.696;2023-07-08T12:36:43;19.38;;;17.67;;
8857;SDS011;4465;50.904;4.696;2023-07-08T12:39:11;18.50;;;16.83;;
8857;SDS011;4465;50.904;4.696;2023-07-08T12:41:46;20.10;;;18.45;;
8857;SDS011;4465;50.904;4.696;2023-07-08T12:44:17;18.92;;;17.25;;
8857;SDS011;4465;50.904;4.696;2023-07-08T12:46:45;18.05;;;16.45;;
8857;SDS011;4465;50.904;4.696;2023-07-08T12:49:17;18.50;;;16.98;;
8857;SDS011;4465;50.904;4.696;2023-07-08T12:51:45;20.00;;;18.30;;
8857;SDS011;4465;50.904;4.696;2023-07-08T12:56:38;21.25;;;19.35;;
8857;SDS011;4465;50.904;4.696;2023-07-08T12:59:07;21.20;;;19.23;;
8857;SDS011;4465;50.904;4.696;2023-07-08T13:01:37;21.27;;;19.58;;
8857;SDS011;4465;50.904;4.696;2023-07-08T13:04:09;23.00;;;21.05;;
8857;SDS011;4465;50.904;4.696;2023-07-08T13:06:36;29.05;;;26.63;;
8857;SDS011;4465;50.904;4.696;2023-07-08T13:09:50;29.35;;;27.15;;
8857;SDS011;4465;50.904;4.696;2023-07-08T13:12:17;33.72;;;31.00;;
8857;SDS011;4465;50.904;4.696;2023-07-08T13:14:51;33.95;;;31.35;;
8857;SDS011;4465;50.904;4.696;2023-07-08T13:17:19;35.38;;;32.78;;
8857;SDS011;4465;50.904;4.696;2023-07-08T13:19:45;38.90;;;35.85;;
8857;SDS011;4465;50.904;4.696;2023-07-08T13:22:21;182.48;;;169.80;;
8857;SDS011;4465;50.904;4.696;2023-07-08T13:24:48;191.57;;;178.43;;
8857;SDS011;4465;50.904;4.696;2023-07-08T13:27:24;191.75;;;178.63;;
8857;SDS011;4465;50.904;4.696;2023-07-08T13:29:54;235.65;;;219.77;;
8857;SDS011;4465;50.904;4.696;2023-07-08T13:32:30;253.35;;;235.93;;
8857;SDS011;4465;50.904;4.696;2023-07-08T13:34:57;259.80;;;242.07;;
8857;SDS011;4465;50.904;4.696;2023-07-08T13:37:22;280.45;;;261.15;;
8857;SDS011;4465;50.904;4.696;2023-07-08T13:39:51;275.05;;;256.13;;
8857;SDS011;4465;50.904;4.696;2023-07-08T13:42:19;304.08;;;283.38;;
8857;SDS011;4465;50.904;4.696;2023-07-08T13:44:46;293.15;;;273.15;;
8857;SDS011;4465;50.904;4.696;2023-07-08T13:47:23;325.30;;;302.55;;
8857;SDS011;4465;50.904;4.696;2023-07-08T13:50:05;328.88;;;306.38;;
8857;SDS011;4465;50.904;4.696;2023-07-08T13:52:43;334.73;;;312.02;;
8857;SDS011;4465;50.904;4.696;2023-07-08T13:55:12;350.88;;;326.75;;
8857;SDS011;4465;50.904;4.696;2023-07-08T13:57:42;347.50;;;323.48;;
8857;SDS011;4465;50.904;4.696;2023-07-08T14:00:08;369.48;;;343.67;;
8857;SDS011;4465;50.904;4.696;2023-07-08T14:02:35;335.02;;;311.70;;
8857;SDS011;4465;50.904;4.696;2023-07-08T14:05:04;318.08;;;295.88;;
8857;SDS011;4465;50.904;4.696;2023-07-08T14:07:35;333.45;;;309.90;;
8857;SDS011;4465;50.904;4.696;2023-07-08T14:10:04;355.50;;;329.52;;
8857;SDS011;4465;50.904;4.696;2023-07-08T14:12:42;363.77;;;336.92;;
8857;SDS011;4465;50.904;4.696;2023-07-08T14:15:08;374.42;;;347.17;;
8857;SDS011;4465;50.904;4.696;2023-07-08T14:17:34;383.15;;;355.00;;
8857;SDS011;4465;50.904;4.696;2023-07-08T14:20:07;380.58;;;352.92;;
8857;SDS011;4465;50.904;4.696;2023-07-08T14:22:38;376.05;;;348.45;;
8857;SDS011;4465;50.904;4.696;2023-07-08T14:25:07;382.55;;;354.38;;
8857;SDS011;4465;50.904;4.696;2023-07-08T14:27:34;382.90;;;354.98;;
8857;SDS011;4465;50.904;4.696;2023-07-08T14:30:00;390.25;;;362.02;;
8857;SDS011;4465;50.904;4.696;2023-07-08T14:32:29;379.63;;;352.33;;
8857;SDS011;4465;50.904;4.696;2023-07-08T14:34:56;384.95;;;357.13;;
8857;SDS011;4465;50.904;4.696;2023-07-08T14:37:25;399.40;;;370.40;;
8857;SDS011;4465;50.904;4.696;2023-07-08T14:39:51;396.33;;;367.85;;
8857;SDS011;4465;50.904;4.696;2023-07-08T14:42:18;381.83;;;354.33;;
8857;SDS011;4465;50.904;4.696;2023-07-08T14:44:50;379.58;;;352.25;;
8857;SDS011;4465;50.904;4.696;2023-07-08T14:47:18;379.98;;;352.73;;
8857;SDS011;4465;50.904;4.696;2023-07-08T14:49:48;384.35;;;356.90;;
8857;SDS011;4465;50.904;4.696;2023-07-08T14:52:14;371.55;;;345.00;;
8857;SDS011;4465;50.904;4.696;2023-07-08T14:54:40;366.17;;;340.20;;
8857;SDS011;4465;50.904;4.696;2023-07-08T14:57:06;378.10;;;351.15;;
8857;SDS011;4465;50.904;4.696;2023-07-08T14:59:37;365.42;;;339.35;;
8857;SDS011;4465;50.904;4.696;2023-07-08T15:02:17;360.63;;;335.55;;
8857;SDS011;4465;50.904;4.696;2023-07-08T15:04:45;343.45;;;319.50;;
8857;SDS011;4465;50.904;4.696;2023-07-08T15:07:11;357.15;;;332.17;;
8857;SDS011;4465;50.904;4.696;2023-07-08T15:09:37;351.90;;;327.25;;
8857;SDS011;4465;50.904;4.696;2023-07-08T15:12:03;354.33;;;329.45;;
8857;SDS011;4465;50.904;4.696;2023-07-08T15:14:30;339.57;;;315.97;;
8857;SDS011;4465;50.904;4.696;2023-07-08T15:16:56;322.85;;;300.42;;
8857;SDS011;4465;50.904;4.696;2023-07-08T15:19:24;321.30;;;299.08;;
8857;SDS011;4465;50.904;4.696;2023-07-08T15:21:50;354.80;;;329.90;;
8857;SDS011;4465;50.904;4.696;2023-07-08T15:24:18;334.85;;;311.27;;
8857;SDS011;4465;50.904;4.696;2023-07-08T15:26:53;348.42;;;324.40;;
8857;SDS011;4465;50.904;4.696;2023-07-08T15:29:20;348.25;;;324.27;;
8857;SDS011;4465;50.904;4.696;2023-07-08T15:31:48;356.45;;;331.38;;
8857;SDS011;4465;50.904;4.696;2023-07-08T15:34:18;361.33;;;336.17;;
8857;SDS011;4465;50.904;4.696;2023-07-08T15:36:45;354.70;;;329.83;;
8857;SDS011;4465;50.904;4.696;2023-07-08T15:39:12;362.08;;;336.98;;
8857;SDS011;4465;50.904;4.696;2023-07-08T15:41:38;346.77;;;322.58;;
8857;SDS011;4465;50.904;4.696;2023-07-08T15:44:07;369.47;;;343.30;;
8857;SDS011;4465;50.904;4.696;2023-07-08T15:46:39;352.17;;;327.58;;
8857;SDS011;4465;50.904;4.696;2023-07-08T15:49:13;350.58;;;326.35;;
8857;SDS011;4465;50.904;4.696;2023-07-08T15:51:41;353.60;;;328.73;;
8857;SDS011;4465;50.904;4.696;2023-07-08T15:54:07;350.83;;;326.27;;
8857;SDS011;4465;50.904;4.696;2023-07-08T15:56:34;355.73;;;330.90;;
8857;SDS011;4465;50.904;4.696;2023-07-08T15:59:00;358.88;;;333.83;;
8857;SDS011;4465;50.904;4.696;2023-07-08T16:01:30;371.17;;;345.17;;